Time;durP1;ratioP1;P1;durP2;ratioP2;P2;SDS_P1;SDS_P2;PMS_P1;PMS_P2;Temp;Humidity;BMP_temperature;BMP_pressure;BME280_temperature;BME280_humidity;BME280_pressure;Samples;Min_cycle;Max_cycle;Signal;HPM_P1;HPM_P2
2022/05/25 00:00:25;;;;;;;3.80;1.73;;;18.20;99.90;;;;;;5059115;28;20202;-72
2022/05/25 00:02:54;;;;;;;2.50;1.50;;;18.20;99.90;;;;;;5064378;28;20191;-72
2022/05/25 00:05:21;;;;;;;2.57;1.53;;;18.20;99.90;;;;;;5058260;28;20285;-72
2022/05/25 00:07:48;;;;;;;2.70;1.50;;;18.20;99.90;;;;;;5064978;28;20186;-72
2022/05/25 00:10:14;;;;;;;2.37;1.30;;;18.20;99.90;;;;;;5054363;28;20340;-72
2022/05/25 00:12:41;;;;;;;2.23;1.40;;;18.10;99.90;;;;;;5063632;28;22001;-72
2022/05/25 00:15:11;;;;;;;2.90;1.20;;;18.10;99.80;;;;;;5081695;28;20286;-72
2022/05/25 00:17:38;;;;;;;2.33;1.40;;;18.10;99.50;;;;;;5063719;28;20192;-72
2022/05/25 00:20:06;;;;;;;3.37;1.40;;;18.10;99.50;;;;;;5043886;28;20254;-72
2022/05/25 00:22:54;;;;;;;6.57;1.73;;;18.10;99.90;;;;;;5064582;28;20308;-72
2022/05/25 00:25:33;;;;;;;2.60;1.40;;;18.10;99.60;;;;;;5055118;28;20281;-72
2022/05/25 00:28:11;;;;;;;3.10;1.57;;;18.10;99.60;;;;;;5037861;28;20222;-72
2022/05/25 00:30:40;;;;;;;2.93;1.40;;;18.10;99.30;;;;;;5079150;28;20896;-72
2022/05/25 00:33:06;;;;;;;3.13;1.40;;;18.00;99.40;;;;;;5063241;28;20230;-72
2022/05/25 00:35:37;;;;;;;1.63;1.20;;;18.00;99.40;;;;;;5046668;28;20273;-72
2022/05/25 00:38:06;;;;;;;4.40;1.50;;;18.00;99.30;;;;;;5067292;28;20255;-72
2022/05/25 00:40:41;;;;;;;1.70;1.40;;;17.90;98.90;;;;;;5063009;28;20336;-72
2022/05/25 00:43:10;;;;;;;3.57;1.30;;;17.90;99.00;;;;;;5066304;28;20252;-72
2022/05/25 00:45:53;;;;;;;1.80;1.20;;;17.90;99.20;;;;;;5060145;28;20206;-72
2022/05/25 00:48:33;;;;;;;2.17;1.20;;;17.90;99.10;;;;;;5053624;28;20718;-72
2022/05/25 00:51:15;;;;;;;2.63;1.40;;;17.90;99.10;;;;;;5030283;28;20187;-72
2022/05/25 00:53:51;;;;;;;2.10;1.10;;;17.80;99.00;;;;;;5042983;28;20837;-72
2022/05/25 00:56:21;;;;;;;1.50;1.20;;;17.80;99.00;;;;;;5085416;28;20190;-72
2022/05/25 00:59:02;;;;;;;2.63;1.43;;;17.70;99.00;;;;;;5064673;28;20195;-72
2022/05/25 01:01:30;;;;;;;2.00;1.23;;;17.70;98.90;;;;;;5058816;28;20182;-72
2022/05/25 01:03:56;;;;;;;2.57;1.40;;;17.70;99.00;;;;;;5065191;28;20231;-72
2022/05/25 01:06:32;;;;;;;2.70;1.30;;;17.70;98.90;;;;;;5067285;28;20205;-72
2022/05/25 01:09:27;;;;;;;3.67;1.40;;;17.70;98.80;;;;;;5064125;28;20193;-72
2022/05/25 01:12:12;;;;;;;3.93;1.37;;;17.70;98.80;;;;;;5056745;28;20551;-72
2022/05/25 01:15:06;;;;;;;3.37;1.50;;;17.70;98.60;;;;;;5051458;28;20222;-72
2022/05/25 01:18:16;;;;;;;2.57;1.30;;;17.70;98.40;;;;;;5061492;28;20299;-72
2022/05/25 01:20:54;;;;;;;2.37;1.33;;;17.70;98.20;;;;;;5064977;28;20214;-72
2022/05/25 01:23:52;;;;;;;2.73;1.27;;;17.70;98.10;;;;;;5062420;28;20599;-72
2022/05/25 01:27:05;;;;;;;4.50;1.30;;;17.70;97.90;;;;;;5066347;28;20264;-72
2022/05/25 01:30:06;;;;;;;4.97;1.40;;;17.80;97.70;;;;;;5068776;28;20198;-72
2022/05/25 01:33:07;;;;;;;2.20;1.43;;;17.90;97.60;;;;;;5039244;28;20261;-72
2022/05/25 01:35:46;;;;;;;1.60;1.20;;;17.90;97.50;;;;;;5066442;28;20198;-72
2022/05/25 01:38:49;;;;;;;7.73;1.40;;;18.00;97.30;;;;;;5071933;28;20252;-72
2022/05/25 01:42:05;;;;;;;2.57;1.30;;;18.00;97.10;;;;;;5059619;28;20551;-72
2022/05/25 01:44:57;;;;;;;3.53;1.20;;;18.00;96.90;;;;;;5045652;28;20187;-72
2022/05/25 01:47:27;;;;;;;1.60;1.37;;;18.20;97.00;;;;;;5074775;28;20595;-72
2022/05/25 01:50:07;;;;;;;2.87;1.40;;;18.20;96.90;;;;;;5063113;28;20191;-72
2022/05/25 01:52:43;;;;;;;2.10;1.30;;;18.20;97.00;;;;;;5055657;28;20213;-72
2022/05/25 01:55:38;;;;;;;2.90;1.20;;;18.30;97.20;;;;;;5056619;28;20591;-72
2022/05/25 01:58:11;;;;;;;2.10;1.20;;;18.30;97.20;;;;;;5077484;28;20221;-72
2022/05/25 02:00:49;;;;;;;2.57;1.43;;;18.30;97.10;;;;;;5067857;28;20711;-72
2022/05/25 02:06:22;;;;;;;1.67;1.40;;;18.40;97.10;;;;;;5064052;28;20214;-72
2022/05/25 02:09:16;;;;;;;2.40;1.53;;;18.40;97.10;;;;;;5048704;28;20194;-72
2022/05/25 02:11:54;;;;;;;4.37;1.67;;;18.40;97.10;;;;;;5047183;28;20186;-72
2022/05/25 02:14:47;;;;;;;2.27;1.50;;;18.40;97.20;;;;;;5074020;28;20261;-72
2022/05/25 02:17:47;;;;;;;6.57;1.90;;;18.40;97.20;;;;;;5057429;28;20289;-72
2022/05/25 02:21:02;;;;;;;2.57;1.50;;;18.50;97.30;;;;;;5048088;28;20237;-72
2022/05/25 02:23:42;;;;;;;2.77;1.70;;;18.50;97.60;;;;;;5008224;28;20196;-72
2022/05/25 02:26:28;;;;;;;5.43;1.60;;;18.50;97.60;;;;;;5061305;28;20210;-72
2022/05/25 02:29:19;;;;;;;2.47;1.40;;;18.50;97.60;;;;;;5035968;28;20274;-72
2022/05/25 02:32:04;;;;;;;3.33;1.20;;;18.50;97.70;;;;;;5067729;28;20219;-72
2022/05/25 02:34:32;;;;;;;3.07;1.50;;;18.50;97.60;;;;;;5064759;28;20250;-72
2022/05/25 02:37:02;;;;;;;7.23;1.77;;;18.50;97.60;;;;;;5069637;28;20183;-72
2022/05/25 02:39:29;;;;;;;2.07;1.67;;;18.40;98.00;;;;;;5050046;28;20192;-72
2022/05/25 02:41:57;;;;;;;5.10;1.73;;;18.40;98.00;;;;;;5069989;28;20695;-72
2022/05/25 02:44:24;;;;;;;2.57;1.57;;;18.40;98.50;;;;;;5050972;28;20696;-72
2022/05/25 02:46:51;;;;;;;3.73;1.67;;;18.40;98.60;;;;;;5067400;28;20917;-72
2022/05/25 02:49:18;;;;;;;3.03;1.60;;;18.50;98.80;;;;;;5070275;28;20194;-72
2022/05/25 02:51:45;;;;;;;5.07;1.70;;;18.50;98.90;;;;;;5065682;28;20201;-72
2022/05/25 02:54:12;;;;;;;2.20;1.47;;;18.50;99.10;;;;;;5066738;28;20293;-72
2022/05/25 02:56:38;;;;;;;2.97;1.67;;;18.50;99.30;;;;;;5054861;28;20258;-72
2022/05/25 02:59:04;;;;;;;4.30;1.50;;;18.50;99.30;;;;;;5065000;28;20191;-72
2022/05/25 03:01:32;;;;;;;5.17;1.70;;;18.50;99.30;;;;;;5074839;28;20187;-72
2022/05/25 03:03:58;;;;;;;1.87;1.40;;;18.50;99.40;;;;;;5070965;28;20269;-72
2022/05/25 03:06:24;;;;;;;3.03;1.73;;;18.50;99.40;;;;;;5046000;28;20572;-72
2022/05/25 03:08:51;;;;;;;6.10;1.70;;;18.50;99.20;;;;;;5037771;28;20190;-72
2022/05/25 03:11:18;;;;;;;3.67;1.83;;;18.50;99.50;;;;;;5051170;28;20187;-72
2022/05/25 03:13:48;;;;;;;1.93;1.50;;;18.60;99.20;;;;;;5059499;28;20225;-72
2022/05/25 03:16:17;;;;;;;4.20;1.60;;;18.60;99.30;;;;;;5055214;28;20194;-72
2022/05/25 03:18:43;;;;;;;3.10;1.80;;;18.60;99.50;;;;;;5075317;28;20190;-72
2022/05/25 03:21:10;;;;;;;2.27;1.60;;;18.70;99.80;;;;;;5069261;28;20205;-72
2022/05/25 03:23:38;;;;;;;3.70;1.70;;;18.60;99.90;;;;;;5068169;28;20271;-72
2022/05/25 03:26:06;;;;;;;7.87;1.80;;;18.60;99.90;;;;;;5044897;28;20198;-72
2022/05/25 03:28:33;;;;;;;2.93;1.80;;;18.60;99.90;;;;;;5067305;28;20196;-72
2022/05/25 03:30:59;;;;;;;2.67;1.70;;;18.70;99.90;;;;;;5047321;28;20215;-72
2022/05/25 03:33:25;;;;;;;3.33;1.80;;;18.70;99.90;;;;;;5072758;28;20231;-72
2022/05/25 03:35:52;;;;;;;3.80;1.70;;;18.70;99.90;;;;;;5067348;28;20189;-72
2022/05/25 03:38:18;;;;;;;4.20;1.80;;;18.70;99.90;;;;;;5050719;28;20187;-72
2022/05/25 03:40:45;;;;;;;4.03;1.70;;;18.70;99.90;;;;;;5072579;28;20285;-72
2022/05/25 03:43:16;;;;;;;2.80;1.80;;;18.70;99.90;;;;;;5058172;28;20273;-72
2022/05/25 03:45:43;;;;;;;2.70;1.50;;;18.70;99.90;;;;;;5069197;28;20243;-72
2022/05/25 03:48:09;;;;;;;2.93;1.60;;;18.70;99.90;;;;;;5056772;28;20217;-72
2022/05/25 03:50:41;;;;;;;5.13;1.87;;;18.70;99.90;;;;;;5067320;28;20195;-72
2022/05/25 03:53:12;;;;;;;3.10;1.63;;;18.70;99.90;;;;;;5061567;28;20587;-72
2022/05/25 03:55:39;;;;;;;6.03;1.80;;;18.70;99.90;;;;;;5076900;28;20193;-72
2022/05/25 03:58:06;;;;;;;1.93;1.70;;;18.80;99.90;;;;;;5066551;28;20186;-72
2022/05/25 04:00:33;;;;;;;6.67;2.00;;;18.80;99.90;;;;;;5063476;28;20750;-72
2022/05/25 04:03:02;;;;;;;6.33;1.80;;;18.80;99.90;;;;;;5059479;28;20186;-72
2022/05/25 04:05:31;;;;;;;4.47;1.80;;;18.90;99.90;;;;;;5049607;28;20194;-72
2022/05/25 04:07:58;;;;;;;4.37;1.87;;;18.90;99.90;;;;;;5046591;28;20216;-72
2022/05/25 04:10:26;;;;;;;3.43;1.90;;;18.90;99.90;;;;;;5057814;28;20247;-72
2022/05/25 04:12:53;;;;;;;2.30;1.80;;;18.90;99.90;;;;;;5065284;28;20203;-72
2022/05/25 04:15:26;;;;;;;3.00;2.20;;;18.90;99.90;;;;;;5046824;28;20703;-72
2022/05/25 04:17:54;;;;;;;3.93;2.10;;;19.00;99.90;;;;;;5064423;28;20178;-72
2022/05/25 04:20:22;;;;;;;5.63;2.33;;;19.00;99.90;;;;;;5074805;28;20201;-72
2022/05/25 04:22:50;;;;;;;2.07;1.70;;;19.00;99.90;;;;;;5082728;28;20210;-72
2022/05/25 04:25:20;;;;;;;4.70;1.73;;;19.10;99.90;;;;;;5066205;28;20547;-72
2022/05/25 04:27:49;;;;;;;2.30;1.80;;;19.10;99.90;;;;;;5063269;28;20199;-72
2022/05/25 04:30:20;;;;;;;3.80;1.90;;;19.10;99.90;;;;;;5078498;28;20183;-72
2022/05/25 04:32:46;;;;;;;3.80;1.97;;;19.20;99.90;;;;;;5083227;28;20233;-72
2022/05/25 04:35:15;;;;;;;2.83;2.13;;;19.30;99.90;;;;;;5052868;28;20211;-72
2022/05/25 04:37:48;;;;;;;2.27;1.80;;;19.40;99.90;;;;;;5066860;28;20178;-72
2022/05/25 04:40:21;;;;;;;6.10;2.10;;;19.50;99.90;;;;;;5065600;28;20183;-72
2022/05/25 04:42:49;;;;;;;3.43;2.07;;;19.60;99.90;;;;;;5062447;28;20219;-72
2022/05/25 04:45:16;;;;;;;4.63;1.97;;;19.70;99.90;;;;;;5058017;28;20294;-72
2022/05/25 04:47:42;;;;;;;3.33;1.87;;;19.80;99.90;;;;;;5065133;28;20191;-72
2022/05/25 04:50:12;;;;;;;3.97;2.07;;;19.90;99.90;;;;;;5064984;28;20219;-72
2022/05/25 04:52:39;;;;;;;2.33;1.80;;;19.90;99.90;;;;;;5067979;28;20913;-72
2022/05/25 04:55:09;;;;;;;4.83;1.73;;;19.90;99.90;;;;;;5048976;28;20232;-72
2022/05/25 04:57:36;;;;;;;4.97;2.07;;;19.90;99.90;;;;;;5060152;28;20244;-72
2022/05/25 05:00:06;;;;;;;6.87;1.60;;;19.90;99.90;;;;;;5048911;28;20643;-72
2022/05/25 05:02:33;;;;;;;5.37;1.97;;;19.90;99.90;;;;;;5032168;28;20635;-72
2022/05/25 05:04:59;;;;;;;4.77;1.87;;;19.90;99.90;;;;;;5044082;28;20195;-72
2022/05/25 05:07:33;;;;;;;5.73;2.10;;;19.90;99.90;;;;;;5061717;28;20228;-72
2022/05/25 05:10:01;;;;;;;2.90;1.90;;;19.90;99.90;;;;;;5079682;28;20277;-72
2022/05/25 05:12:29;;;;;;;3.90;1.80;;;20.00;99.90;;;;;;5054560;28;20192;-72
2022/05/25 05:14:57;;;;;;;4.33;2.00;;;20.00;99.90;;;;;;5063009;28;20268;-72
2022/05/25 05:17:24;;;;;;;4.27;2.07;;;20.00;99.90;;;;;;5032435;28;20183;-72
2022/05/25 05:19:51;;;;;;;2.43;1.90;;;20.10;99.90;;;;;;5071970;28;20726;-72
2022/05/25 05:22:17;;;;;;;3.27;2.10;;;20.00;99.90;;;;;;5083567;28;20206;-72
2022/05/25 05:24:44;;;;;;;3.60;2.07;;;20.10;99.90;;;;;;5083695;28;20195;-72
2022/05/25 05:27:11;;;;;;;6.27;2.40;;;20.10;99.90;;;;;;5036108;28;20559;-72
2022/05/25 05:29:37;;;;;;;3.47;1.83;;;20.20;99.90;;;;;;5049607;28;20187;-72
2022/05/25 05:32:10;;;;;;;5.97;2.00;;;20.20;99.90;;;;;;5040350;28;20203;-72
2022/05/25 05:34:37;;;;;;;2.60;1.80;;;20.30;99.90;;;;;;5061917;28;20842;-72
2022/05/25 05:37:19;;;;;;;5.73;1.93;;;20.30;99.90;;;;;;5047891;28;20190;-72
2022/05/25 05:39:53;;;;;;;4.23;2.00;;;20.40;99.90;;;;;;5072630;28;20531;-72
2022/05/25 05:42:24;;;;;;;2.30;2.10;;;20.40;99.90;;;;;;5064903;28;20222;-72
2022/05/25 05:45:03;;;;;;;3.87;1.83;;;20.50;99.90;;;;;;5063376;28;20183;-72
2022/05/25 05:47:40;;;;;;;3.63;1.90;;;20.60;99.90;;;;;;5047438;28;20191;-72
2022/05/25 05:50:10;;;;;;;9.73;1.73;;;20.60;99.90;;;;;;5050393;28;20209;-72
2022/05/25 05:52:37;;;;;;;2.27;1.67;;;20.60;99.90;;;;;;5044979;28;20539;-72
2022/05/25 05:55:05;;;;;;;5.47;2.00;;;20.70;99.90;;;;;;5063253;28;20210;-72
2022/05/25 05:57:36;;;;;;;3.47;1.90;;;20.80;99.90;;;;;;5062646;28;20222;-72
2022/05/25 06:00:05;;;;;;;3.50;2.10;;;20.90;99.90;;;;;;5038135;28;20183;-72
2022/05/25 06:02:31;;;;;;;4.33;2.00;;;21.00;99.90;;;;;;5073482;28;20516;-72
2022/05/25 06:04:58;;;;;;;3.13;1.80;;;21.00;99.90;;;;;;5046218;28;20217;-72
2022/05/25 06:07:24;;;;;;;3.63;1.80;;;21.10;99.90;;;;;;5062504;28;20213;-72
2022/05/25 06:09:51;;;;;;;7.07;2.10;;;21.10;99.90;;;;;;5060851;28;20277;-72
2022/05/25 06:12:17;;;;;;;3.37;2.00;;;21.10;99.90;;;;;;5054954;28;20241;-72
2022/05/25 06:14:44;;;;;;;3.43;2.00;;;21.20;99.90;;;;;;5079088;28;20611;-72
2022/05/25 06:19:55;;;;;;;7.97;2.00;;;21.40;99.90;;;;;;5062081;28;20741;-72
2022/05/25 06:22:22;;;;;;;5.50;2.17;;;21.50;99.90;;;;;;5070851;28;20183;-72
2022/05/25 06:24:52;;;;;;;3.97;2.13;;;21.60;99.90;;;;;;5034191;28;20278;-72
2022/05/25 06:27:21;;;;;;;4.70;2.47;;;21.70;99.90;;;;;;5059433;28;20189;-72
2022/05/25 06:29:49;;;;;;;4.17;2.20;;;21.70;99.90;;;;;;5062544;28;20335;-72
2022/05/25 06:32:27;;;;;;;5.47;2.13;;;21.80;99.90;;;;;;5080828;28;20234;-72
2022/05/25 06:34:53;;;;;;;5.63;1.93;;;21.90;99.90;;;;;;5060309;28;20229;-72
2022/05/25 06:37:28;;;;;;;5.87;1.97;;;22.00;99.90;;;;;;5044091;28;20190;-72
2022/05/25 06:39:55;;;;;;;3.23;1.90;;;22.10;99.90;;;;;;5044124;28;20300;-72
2022/05/25 06:42:21;;;;;;;5.73;2.23;;;22.20;99.90;;;;;;5079176;28;20188;-72
2022/05/25 06:44:48;;;;;;;5.53;2.00;;;22.30;99.90;;;;;;5044810;28;20190;-72
2022/05/25 06:47:16;;;;;;;5.27;1.70;;;22.30;99.90;;;;;;5062639;28;20290;-72
2022/05/25 06:49:44;;;;;;;3.53;1.80;;;22.50;99.90;;;;;;5041107;28;20251;-72
2022/05/25 06:52:13;;;;;;;3.45;2.30;;;22.50;99.90;;;;;;5067241;28;20199;-72
2022/05/25 06:54:42;;;;;;;4.15;2.20;;;22.70;99.90;;;;;;5070846;28;20263;-72
2022/05/25 06:57:08;;;;;;;2.80;1.77;;;22.70;99.90;;;;;;5054378;28;20187;-72
2022/05/25 06:59:36;;;;;;;7.05;2.40;;;22.70;99.90;;;;;;5066027;28;20197;-72
2022/05/25 07:02:03;;;;;;;4.67;2.40;;;23.00;99.90;;;;;;5071443;28;20187;-72
2022/05/25 07:04:29;;;;;;;4.35;2.33;;;23.00;99.90;;;;;;5073529;28;20209;-72
2022/05/25 07:07:00;;;;;;;3.42;2.33;;;23.00;99.90;;;;;;5033356;28;20195;-72
2022/05/25 07:09:27;;;;;;;6.78;2.17;;;23.00;99.90;;;;;;5063571;28;20198;-72
2022/05/25 07:11:54;;;;;;;4.88;2.42;;;22.90;99.90;;;;;;5047933;28;20175;-72
2022/05/25 07:14:20;;;;;;;4.53;2.60;;;23.00;99.90;;;;;;5045349;28;20195;-72
2022/05/25 07:16:47;;;;;;;5.10;2.85;;;23.00;99.90;;;;;;5062210;28;20186;-72
2022/05/25 07:19:13;;;;;;;7.93;2.55;;;23.00;99.90;;;;;;5035986;28;20179;-72
2022/05/25 07:21:40;;;;;;;4.35;2.50;;;23.00;99.90;;;;;;5058941;28;20354;-72
2022/05/25 07:24:07;;;;;;;9.38;2.97;;;23.00;99.90;;;;;;5061458;28;20182;-72
2022/05/25 07:26:35;;;;;;;5.82;2.58;;;23.10;99.90;;;;;;5068162;28;20651;-72
2022/05/25 07:29:02;;;;;;;7.50;3.33;;;23.10;99.90;;;;;;5048008;28;20234;-72
2022/05/25 07:31:42;;;;;;;7.28;3.00;;;23.10;99.90;;;;;;5044058;28;20269;-72
2022/05/25 07:34:20;;;;;;;7.07;2.67;;;23.20;99.90;;;;;;5031734;28;20264;-72
2022/05/25 07:37:04;;;;;;;7.85;2.80;;;23.20;99.90;;;;;;5063830;28;20275;-72
2022/05/25 07:39:40;;;;;;;5.93;2.55;;;23.20;99.90;;;;;;5058209;28;20671;-72
2022/05/25 07:42:11;;;;;;;6.78;2.70;;;23.30;99.90;;;;;;5045478;28;20201;-72
2022/05/25 07:44:52;;;;;;;5.80;2.78;;;23.30;99.90;;;;;;5059298;28;20541;-72
2022/05/25 07:47:18;;;;;;;8.60;2.50;;;23.40;99.90;;;;;;5045612;28;20271;-72
2022/05/25 07:49:47;;;;;;;9.90;2.80;;;23.50;99.90;;;;;;5043500;28;20179;-72
2022/05/25 07:52:14;;;;;;;6.90;2.70;;;23.50;99.90;;;;;;5060169;28;20187;-72
2022/05/25 07:54:45;;;;;;;4.90;2.28;;;23.50;99.90;;;;;;5064035;28;20312;-72
2022/05/25 07:57:14;;;;;;;8.05;2.78;;;23.60;99.90;;;;;;5068238;28;20199;-72
2022/05/25 07:59:41;;;;;;;7.25;2.75;;;23.60;99.90;;;;;;5047777;28;20509;-72
2022/05/25 08:08:06;;;;;;;5.85;2.67;;;23.90;99.90;;;;;;5039362;28;20191;-72
2022/05/25 08:10:34;;;;;;;8.25;2.67;;;24.00;99.90;;;;;;5056424;28;20236;-72
2022/05/25 08:13:03;;;;;;;8.55;2.78;;;24.10;99.90;;;;;;5058784;28;20191;-72
2022/05/25 08:15:32;;;;;;;8.25;2.85;;;24.10;99.90;;;;;;5063421;28;20833;-72
2022/05/25 08:18:01;;;;;;;5.88;2.67;;;24.10;99.90;;;;;;5045081;28;20209;-72
2022/05/25 08:20:30;;;;;;;6.15;2.75;;;24.20;99.90;;;;;;5063874;28;20283;-72
2022/05/25 08:22:57;;;;;;;8.88;2.40;;;24.30;99.90;;;;;;5073637;28;20187;-72
2022/05/25 08:25:23;;;;;;;5.72;2.75;;;24.50;99.90;;;;;;5079469;28;20199;-72
2022/05/25 08:27:50;;;;;;;9.95;2.97;;;24.50;99.90;;;;;;5045451;28;20187;-72
2022/05/25 08:30:20;;;;;;;8.05;2.42;;;24.70;99.90;;;;;;5047246;28;20277;-72
2022/05/25 08:32:47;;;;;;;8.85;3.03;;;24.80;99.90;;;;;;5065994;28;20206;-72
2022/05/25 08:35:15;;;;;;;6.05;2.70;;;24.90;99.90;;;;;;5049336;28;20235;-72
2022/05/25 08:37:42;;;;;;;8.68;2.70;;;25.00;99.90;;;;;;5044080;28;20246;-72
2022/05/25 08:40:13;;;;;;;8.18;2.35;;;25.10;99.90;;;;;;5067564;28;20896;-72
2022/05/25 08:43:27;;;;;;;6.97;2.58;;;25.10;99.90;;;;;;5028846;28;20202;-72
2022/05/25 08:46:01;;;;;;;12.15;2.30;;;25.10;99.90;;;;;;5071768;28;20182;-72
2022/05/25 08:48:29;;;;;;;4.82;2.80;;;25.20;99.90;;;;;;5063113;28;20711;-73
2022/05/25 08:51:11;;;;;;;7.00;2.53;;;25.30;99.90;;;;;;5059572;28;20179;-72
2022/05/25 08:53:39;;;;;;;3.88;2.28;;;25.40;99.90;;;;;;5052208;28;20193;-72
2022/05/25 08:56:24;;;;;;;5.20;2.60;;;25.50;99.90;;;;;;5061038;28;20225;-73
2022/05/25 08:59:21;;;;;;;5.57;2.50;;;25.60;99.90;;;;;;5048304;28;20336;-73
2022/05/25 09:02:45;;;;;;;7.05;2.45;;;25.70;99.90;;;;;;5048355;28;21527;-72
2022/05/25 09:05:46;;;;;;;9.13;2.50;;;25.70;99.90;;;;;;5068917;28;20659;-72
2022/05/25 09:08:35;;;;;;;6.30;2.80;;;25.90;99.90;;;;;;5063388;28;20533;-72
2022/05/25 09:11:23;;;;;;;7.53;2.80;;;26.10;99.90;;;;;;5040728;28;20190;-72
2022/05/25 09:14:37;;;;;;;5.88;2.75;;;26.20;99.90;;;;;;5063298;28;20301;-72
2022/05/25 09:17:19;;;;;;;6.60;2.85;;;26.30;99.90;;;;;;5061289;28;20725;-72
2022/05/25 09:19:47;;;;;;;9.10;2.97;;;26.20;99.90;;;;;;5062376;28;20209;-72
2022/05/25 09:22:26;;;;;;;5.55;2.97;;;26.20;99.90;;;;;;5091926;28;20193;-72
2022/05/25 09:24:57;;;;;;;8.05;2.85;;;26.30;99.90;;;;;;5091790;28;20186;-72
2022/05/25 09:27:36;;;;;;;7.03;2.92;;;26.50;99.90;;;;;;5072397;28;20248;-72
2022/05/25 09:30:04;;;;;;;9.15;2.80;;;26.60;99.90;;;;;;5038076;28;20560;-72
2022/05/25 09:33:02;;;;;;;9.10;2.88;;;26.50;99.90;;;;;;5054361;28;20222;-72
2022/05/25 09:35:54;;;;;;;10.43;2.83;;;26.70;99.90;;;;;;5046364;28;20276;-72
2022/05/25 09:38:45;;;;;;;14.63;3.10;;;26.60;99.90;;;;;;5063651;28;20205;-72
2022/05/25 09:41:27;;;;;;;7.70;2.63;;;26.60;99.90;;;;;;5044557;28;20183;-72
2022/05/25 09:44:00;;;;;;;7.63;2.85;;;26.70;99.90;;;;;;5059696;28;20186;-72
2022/05/25 09:46:35;;;;;;;5.68;2.63;;;26.90;99.90;;;;;;5049605;28;20192;-73
2022/05/25 09:49:12;;;;;;;7.25;2.95;;;26.90;99.90;;;;;;5059259;28;20963;-72
2022/05/25 09:51:51;;;;;;;6.47;2.70;;;26.80;99.90;;;;;;5065166;28;20262;-72
2022/05/25 09:54:28;;;;;;;9.50;3.13;;;26.90;99.90;;;;;;5027201;28;20302;-72
2022/05/25 09:57:25;;;;;;;4.38;2.65;;;27.00;99.90;;;;;;5078222;28;20188;-72
2022/05/25 10:00:09;;;;;;;7.35;2.83;;;27.00;99.90;;;;;;5033095;28;20508;-72
2022/05/25 10:03:00;;;;;;;4.70;2.35;;;27.10;99.90;;;;;;5071455;28;20214;-72
2022/05/25 10:05:33;;;;;;;7.88;2.75;;;27.20;99.90;;;;;;5071271;28;20186;-72
2022/05/25 10:08:15;;;;;;;6.03;2.50;;;27.20;99.90;;;;;;5067034;28;20183;-72
2022/05/25 10:10:59;;;;;;;8.88;3.20;;;27.20;99.90;;;;;;5068544;28;20218;-72
2022/05/25 10:13:40;;;;;;;5.50;2.65;;;27.20;99.90;;;;;;5051617;28;20179;-72
2022/05/25 10:16:33;;;;;;;6.90;2.90;;;27.30;99.90;;;;;;5057657;28;20186;-72
2022/05/25 10:19:01;;;;;;;4.55;2.40;;;27.30;99.90;;;;;;5079391;28;20310;-72
2022/05/25 10:21:35;;;;;;;7.78;2.78;;;27.20;99.90;;;;;;5060918;28;20201;-71
2022/05/25 10:24:42;;;;;;;6.45;2.50;;;27.30;99.90;;;;;;5037109;28;20999;-71
2022/05/25 10:27:43;;;;;;;6.97;2.97;;;27.20;99.90;;;;;;5049754;28;20214;-72
2022/05/25 10:36:47;;;;;;;6.40;2.88;;;27.40;99.90;;;;;;5054552;28;20192;-72
2022/05/25 10:39:22;;;;;;;8.15;2.90;;;27.30;99.90;;;;;;5069227;28;20282;-72
2022/05/25 10:42:17;;;;;;;8.48;2.35;;;27.40;99.90;;;;;;5070410;28;20186;-73
2022/05/25 10:45:18;;;;;;;7.20;2.65;;;27.40;99.90;;;;;;5047286;28;20229;-72
2022/05/25 10:47:57;;;;;;;6.60;2.38;;;27.30;99.90;;;;;;5048221;28;20190;-72
2022/05/25 10:50:51;;;;;;;7.68;2.38;;;27.40;99.90;;;;;;5071907;28;20179;-72
2022/05/25 10:57:40;;;;;;;4.65;2.30;;;27.20;99.90;;;;;;5066578;28;20203;-73
2022/05/25 11:00:44;;;;;;;6.70;2.65;;;27.20;99.90;;;;;;5055218;28;20221;-72
2022/05/25 11:04:11;;;;;;;6.43;2.58;;;27.10;99.90;;;;;;5031895;28;20198;-72
2022/05/25 11:06:57;;;;;;;4.50;2.47;;;27.20;99.90;;;;;;5052968;28;20202;-72
2022/05/25 11:09:48;;;;;;;4.82;2.28;;;27.30;99.90;;;;;;5059138;28;20275;-72
2022/05/25 11:13:03;;;;;;;6.93;2.70;;;27.20;99.90;;;;;;5060719;28;20186;-73
2022/05/25 11:16:05;;;;;;;5.35;2.42;;;27.30;99.90;;;;;;5038556;28;20257;-72
2022/05/25 11:19:27;;;;;;;4.55;2.20;;;27.20;99.90;;;;;;5045671;28;20233;-72
2022/05/25 11:22:09;;;;;;;6.35;2.47;;;27.10;99.90;;;;;;5072683;28;20183;-72
2022/05/25 11:24:57;;;;;;;5.53;2.08;;;27.10;99.90;;;;;;5076757;28;20532;-72
2022/05/25 11:27:54;;;;;;;5.80;2.17;;;27.10;99.90;;;;;;5065649;28;20640;-73
2022/05/25 11:31:02;;;;;;;4.32;2.10;;;26.90;99.90;;;;;;5063667;28;20187;-72
2022/05/25 11:34:22;;;;;;;3.53;1.80;;;27.10;99.90;;;;;;5030471;28;20210;-72
2022/05/25 11:37:16;;;;;;;6.65;2.38;;;27.10;99.90;;;;;;5072902;28;20255;-72
2022/05/25 11:40:44;;;;;;;5.60;2.00;;;27.10;99.90;;;;;;5041146;28;20209;-72
2022/05/25 11:43:45;;;;;;;6.03;2.63;;;27.10;99.90;;;;;;5054152;28;20186;-72
2022/05/25 11:46:49;;;;;;;5.57;2.25;;;27.20;99.90;;;;;;5066519;28;20182;-73
2022/05/25 11:50:02;;;;;;;7.03;2.17;;;27.20;99.90;;;;;;5055427;28;20269;-72
2022/05/25 11:53:00;;;;;;;5.40;2.50;;;27.10;99.90;;;;;;5064854;28;20198;-72
2022/05/25 11:55:43;;;;;;;6.97;2.72;;;27.20;99.90;;;;;;5052627;28;20313;-72
2022/05/25 11:58:55;;;;;;;6.80;2.60;;;27.10;99.90;;;;;;5057857;28;20187;-72
2022/05/25 12:01:36;;;;;;;5.10;2.42;;;27.00;99.90;;;;;;5046466;28;20188;-72
2022/05/25 12:04:46;;;;;;;5.30;2.40;;;27.00;99.90;;;;;;5037327;28;20187;-72
2022/05/25 12:07:25;;;;;;;10.00;2.63;;;27.20;99.90;;;;;;5061572;28;20592;-72
2022/05/25 12:10:36;;;;;;;6.53;2.60;;;27.20;99.90;;;;;;5038519;28;20191;-72
2022/05/25 12:13:36;;;;;;;5.43;2.45;;;27.10;99.90;;;;;;5048178;28;20203;-72
2022/05/25 12:16:21;;;;;;;7.53;2.58;;;27.10;99.90;;;;;;5029608;28;20861;-72
2022/05/25 12:19:10;;;;;;;8.85;2.67;;;27.10;99.90;;;;;;5065058;28;20604;-73
2022/05/25 12:21:49;;;;;;;8.60;2.90;;;27.20;99.90;;;;;;5054213;28;20191;-72
2022/05/25 12:24:40;;;;;;;8.50;2.90;;;27.20;99.90;;;;;;5040597;28;20316;-72
2022/05/25 12:27:22;;;;;;;5.88;2.45;;;27.20;99.90;;;;;;5061374;28;20720;-72
2022/05/25 12:30:01;;;;;;;4.78;2.42;;;27.10;99.90;;;;;;5075661;28;20190;-72
2022/05/25 12:32:29;;;;;;;4.63;2.40;;;27.00;99.90;;;;;;5076478;28;20271;-72
2022/05/25 12:34:58;;;;;;;7.90;2.63;;;27.00;99.90;;;;;;5031498;28;20708;-72
2022/05/25 12:37:42;;;;;;;8.90;2.80;;;27.00;99.90;;;;;;5067734;28;20718;-72
2022/05/25 12:40:31;;;;;;;7.80;2.67;;;27.20;99.90;;;;;;5066455;28;20180;-72
2022/05/25 12:42:58;;;;;;;5.30;2.42;;;27.20;99.90;;;;;;5062818;28;20178;-72
2022/05/25 12:48:38;;;;;;;9.50;2.58;;;27.10;99.90;;;;;;5061302;28;20187;-72
2022/05/25 12:51:27;;;;;;;7.82;2.85;;;27.00;99.90;;;;;;5053894;28;20202;-72
2022/05/25 12:53:58;;;;;;;5.07;2.80;;;27.00;99.90;;;;;;5056555;28;20244;-72
2022/05/25 12:56:24;;;;;;;7.50;2.92;;;27.00;99.90;;;;;;5061596;28;20824;-72
2022/05/25 12:58:56;;;;;;;6.82;2.92;;;27.00;99.90;;;;;;5066765;28;20182;-72
2022/05/25 13:01:28;;;;;;;7.25;2.50;;;26.90;99.90;;;;;;5060929;28;20225;-72
2022/05/25 13:03:57;;;;;;;4.55;2.63;;;26.90;99.90;;;;;;5072674;28;20235;-72
2022/05/25 13:06:43;;;;;;;6.05;2.60;;;26.90;99.90;;;;;;5070619;28;20563;-72
2022/05/25 13:09:42;;;;;;;6.28;2.42;;;26.80;99.90;;;;;;5063927;28;20679;-73
2022/05/25 13:12:44;;;;;;;6.20;2.92;;;26.80;99.90;;;;;;5062979;28;20285;-72
2022/05/25 13:15:19;;;;;;;9.30;2.88;;;26.90;99.90;;;;;;5061725;28;20560;-73
2022/05/25 13:17:55;;;;;;;6.65;2.90;;;26.90;99.90;;;;;;5076226;28;20204;-72
2022/05/25 13:20:27;;;;;;;6.00;2.47;;;26.80;99.90;;;;;;5069586;28;20244;-73
2022/05/25 13:23:04;;;;;;;6.53;2.70;;;26.60;99.90;;;;;;5059332;28;20707;-73
2022/05/25 13:25:42;;;;;;;4.70;2.50;;;26.80;99.90;;;;;;5050273;28;20757;-72
2022/05/25 13:28:51;;;;;;;5.72;2.28;;;26.80;99.90;;;;;;5041653;28;20182;-72
2022/05/25 13:31:53;;;;;;;9.35;2.92;;;26.80;99.90;;;;;;5069030;28;20229;-72
2022/05/25 13:34:22;;;;;;;6.47;2.45;;;26.70;99.90;;;;;;5055035;28;20210;-72
2022/05/25 13:37:13;;;;;;;5.15;2.47;;;26.70;99.90;;;;;;5055470;28;20183;-72
2022/05/25 13:39:42;;;;;;;8.27;2.55;;;26.50;99.90;;;;;;5070409;28;20190;-72
2022/05/25 13:42:18;;;;;;;4.40;2.40;;;26.70;99.90;;;;;;5080302;28;20187;-72
2022/05/25 13:44:47;;;;;;;5.45;2.55;;;26.70;99.90;;;;;;5070991;28;20260;-72
2022/05/25 13:47:21;;;;;;;4.53;2.47;;;26.70;99.90;;;;;;5034429;28;20660;-72
2022/05/25 13:49:52;;;;;;;4.28;2.45;;;26.60;99.90;;;;;;5076396;28;20184;-72
2022/05/25 13:52:35;;;;;;;7.63;2.40;;;26.60;99.90;;;;;;5055287;28;20214;-72
2022/05/25 13:55:32;;;;;;;5.40;2.47;;;26.50;99.90;;;;;;5024329;28;20255;-72
2022/05/25 13:58:01;;;;;;;5.25;2.30;;;26.60;99.90;;;;;;5057424;28;20183;-72
2022/05/25 14:00:27;;;;;;;7.53;2.70;;;26.60;99.90;;;;;;5063807;28;20279;-72
2022/05/25 14:03:05;;;;;;;8.75;2.42;;;26.60;99.90;;;;;;5068804;28;20889;-72